• Join FlightAware (Why Join?)
  • Login
  • US Flag 
11:24PM EDT


 

Airport Tracker/Info


-or-


 

Live Flight TrackerFlight Track Log ✈ SWA448 ✈ 02-Oct-2013 ✈ KPHX - KOMA

Flight Track Log - Related Links

Times and Time Zones

All times are in EDT time to prevent confusion due to time zone crossing. See the SWA448 flight status page for this flight to view local times or setup timezone preferences in your user account.

Time Position Orientation Groundspeed Altitude Reporting Facility
EDT Latitude Longitude Course Direction KTS MPH feet Rate Location/Type
09:07PM 33.4333 -112.0333 270° West 130 150 1,900  Level Phoenix TRACON
09:08PM 33.4333 -112.0667 270° West 165 190 3,900 2,760 Climbing Phoenix TRACON
09:09PM 33.4342 -112.1281 271° West 216 249 6,400 3,000 Climbing Albuquerque Center
09:10PM 33.4811 -112.1717 322° Northwest 277 319 9,700 2,700 Climbing Albuquerque Center
09:11PM 33.5583 -112.1183 30° Northeast 329 379 12,100 2,700 Climbing Albuquerque Center
09:12PM 33.6439 -112.0500 34° Northeast 365 420 15,300 2,940 Climbing Albuquerque Center
09:13PM 33.7353 -111.9778 33° Northeast 389 448 18,200 2,880 Climbing Albuquerque Center
09:14PM 33.8500 -111.8875 33° Northeast 418 481 21,300 2,700 Climbing Albuquerque Center
09:15PM 33.9528 -111.8061 33° Northeast 439 505 23,800 2,280 Climbing Albuquerque Center
09:16PM 34.0592 -111.7208 34° Northeast 457 526 26,000 1,920 Climbing Albuquerque Center
09:17PM 34.1489 -111.6189 43° Northeast 474 545 27,800 1,620 Climbing Albuquerque Center
09:18PM 34.2492 -111.5044 43° Northeast 492 566 29,400 1,500 Climbing Albuquerque Center
09:19PM 34.3544 -111.3850 43° Northeast 510 587 30,900 1,800 Climbing Albuquerque Center
09:20PM 34.4819 -111.2369 44° Northeast 525 604 33,200 1,920 Climbing Albuquerque Center
09:21PM 34.5886 -111.1164 43° Northeast 526 605 34,900 1,500 Climbing Albuquerque Center
09:22PM 34.6939 -110.9936 44° Northeast 526 605 36,300 1,440 Climbing Albuquerque Center
09:23PM 34.7997 -110.8700 44° Northeast 527 606 37,900 1,380 Climbing Albuquerque Center
09:24PM 34.9117 -110.7406 43° Northeast 523 602 39,200 1,200 Climbing Albuquerque Center
09:25PM 35.0117 -110.6222 44° Northeast 523 602 40,400 900 Climbing Albuquerque Center
09:26PM 35.1275 -110.4867 44° Northeast 518 596 41,100 300 Climbing Albuquerque Center
09:27PM 35.2269 -110.3700 44° Northeast 517 595 41,100  Level Albuquerque Center
09:28PM 35.3428 -110.2322 44° Northeast 518 596 41,100  Level Albuquerque Center
09:29PM 35.4411 -110.1150 44° Northeast 517 595 41,100  Level Albuquerque Center
09:30PM 35.5408 -109.9978 44° Northeast 518 596 41,100  Level Albuquerque Center
09:31PM 35.6561 -109.8583 44° Northeast 519 597 41,100  Level Albuquerque Center
09:32PM 35.7461 -109.7289 49° Northeast 520 598 41,100  Level Albuquerque Center
09:33PM 35.8433 -109.5700 53° Northeast 520 598 41,100  Level Albuquerque Center
09:34PM 35.9283 -109.4344 52° Northeast 521 600 41,100  Level Albuquerque Center
09:35PM 36.0125 -109.2981 53° Northeast 520 598 41,100  Level Albuquerque Center
09:36PM 36.1133 -109.1381 52° Northeast 522 601 41,100  Level Albuquerque Center
09:37PM 36.1997 -109.0014 52° Northeast 522 601 41,100  Level Albuquerque Center
09:38PM 36.2858 -108.8611 53° Northeast 523 602 41,100  Level Albuquerque Center
09:39PM 36.3725 -108.6881 58° Northeast 524 603 41,100  Level Albuquerque Center
09:40PM 36.4433 -108.5397 59° Northeast 520 598 41,100  Level Albuquerque Center
09:42PM 36.5136 -108.3917 59° Northeast 519 597 41,100  Level Albuquerque Center
09:43PM 36.6192 -108.1694 59° Northeast 518 596 41,100  Level Denver Center
09:44PM 36.6897 -108.0214 59° Northeast 517 595 41,100  Level Denver Center
09:45PM 36.7697 -107.8492 60° Northeast 515 593 41,100  Level Denver Center
09:46PM 36.8394 -107.7017 59° Northeast 514 592 41,100  Level Denver Center
09:47PM 36.9100 -107.5522 59° Northeast 520 598 41,100  Level Denver Center
09:48PM 36.9886 -107.3786 60° Northeast 516 594 41,100  Level Denver Center
09:49PM 37.0575 -107.2294 60° Northeast 518 596 41,100  Level Denver Center
09:50PM 37.1383 -107.0567 60° Northeast 515 593 41,100  Level Denver Center
09:51PM 37.2072 -106.9064 60° Northeast 518 596 41,100  Level Denver Center
09:52PM 37.2867 -106.7306 60° Northeast 519 597 41,100  Level Denver Center
09:53PM 37.3544 -106.5811 60° Northeast 515 593 41,100  Level Denver Center
09:54PM 37.4336 -106.4069 60° Northeast 513 590 41,100  Level Denver Center
09:55PM 37.4994 -106.2578 61° Northeast 511 588 41,100  Level Denver Center
09:56PM 37.5694 -106.0992 61° Northeast 514 592 41,100  Level Denver Center
09:57PM 37.6478 -105.9219 61° Northeast 516 594 41,100  Level Denver Center
09:58PM 37.7153 -105.7719 60° Northeast 514 592 41,100  Level Denver Center
09:59PM 37.7803 -105.6211 61° Northeast 511 588 41,100  Level Denver Center
10:00PM 37.8572 -105.4447 61° Northeast 511 588 41,100  Level Denver Center
10:01PM 37.9236 -105.2939 61° Northeast 512 589 41,100 -60 Level Denver Center
10:02PM 37.9994 -105.1194 61° Northeast 507 583 41,000  Descending Denver Center
10:03PM 38.0639 -104.9692 61° Northeast 504 580 41,100  Climbing Denver Center
10:04PM 38.1394 -104.7933 61° Northeast 505 581 41,000  Descending Denver Center
10:06PM 38.2033 -104.6417 62° Northeast 506 582 41,100  Climbing Denver Center
10:07PM 38.2683 -104.4892 61° Northeast 509 586 41,100  Level Denver Center
10:08PM 38.3353 -104.3314 62° Northeast 503 579 41,100  Level Denver Center
10:09PM 38.4014 -104.1703 62° Northeast 510 587 41,100  Level Denver Center
10:10PM 38.4803 -103.9800 62° Northeast 508 585 41,100  Level Denver Center
10:11PM 38.5439 -103.8264 62° Northeast 508 585 41,100  Level Denver Center
10:12PM 38.6075 -103.6700 62° Northeast 514 592 41,100  Level Denver Center
10:13PM 38.6800 -103.4911 63° Northeast 508 585 41,100  Level Denver Center
10:14PM 38.7406 -103.3406 63° Northeast 509 586 41,100  Level Denver Center
10:15PM 38.8047 -103.1803 63° Northeast 508 585 41,100  Level Denver Center
10:16PM 38.8694 -103.0206 62° Northeast 508 585 41,100  Level Denver Center
10:17PM 38.9331 -102.8608 63° Northeast 506 582 41,100  Level Denver Center
10:18PM 39.0075 -102.6700 63° Northeast 507 583 41,100  Level Denver Center
10:19PM 39.0686 -102.5153 63° Northeast 508 585 41,100  Level Denver Center
10:20PM 39.1403 -102.3322 63° Northeast 512 589 41,100  Level Denver Center
10:21PM 39.2006 -102.1756 64° Northeast 510 587 41,100  Level Denver Center
10:22PM 39.2714 -101.9931 63° Northeast 509 586 41,100  Level Denver Center
10:23PM 39.3353 -101.8300 63° Northeast 509 586 41,100  Level Denver Center
10:24PM 39.4008 -101.6767 61° Northeast 509 586 41,100  Level Denver Center
10:25PM 39.4933 -101.5547 45° Northeast 499 574 41,100  Level Denver Center
10:26PM 39.6017 -101.4083 46° Northeast 503 579 41,100  Level Denver Center
10:27PM 39.6939 -101.2836 46° Northeast 501 577 41,100  Level Denver Center
10:28PM 39.8014 -101.1381 46° Northeast 501 577 41,100  Level Denver Center
10:29PM 39.8703 -101.0258 51° Northeast 500 575 41,100  Level Denver Center
10:30PM 39.9267 -100.8028 72° East 509 586 41,100  Level Denver Center
10:31PM 39.9661 -100.6356 73° East 508 585 41,100  Level Denver Center
10:32PM 40.0064 -100.4689 72° East 506 582 41,100  Level Denver Center
10:33PM 40.0539 -100.2756 72° East 504 580 41,100  Level Denver Center
10:34PM 40.0944 -100.1083 72° East 505 581 41,100  Level Denver Center
10:35PM 40.1425 -99.9139 72° East 506 582 41,100  Level Denver Center
10:36PM 40.1814 -99.7583 72° East 507 583 41,100  Level Denver Center
10:37PM 40.2244 -99.5842 72° East 505 581 41,100  Level Denver Center
10:38PM 40.2703 -99.3764 74° East 500 575 41,100  Level Denver Center
10:39PM 40.3025 -99.2028 76° East 495 570 41,100  Level Denver Center
10:40PM 40.3217 -99.0989 76° East 495 570 41,100  Level Minneapolis Center
10:41PM 40.3542 -98.9261 76° East 492 566 41,100  Level Minneapolis Center
10:42PM 40.3869 -98.7503 76° East 497 572 41,100  Level Minneapolis Center
10:43PM 40.4194 -98.5772 76° East 494 568 41,100  Level Minneapolis Center
10:44PM 40.4614 -98.3669 75° East 497 572 41,100 -840 Level Minneapolis Center
10:45PM 40.5086 -98.2022 69° East 485 558 39,500 -1,500 Descending Minneapolis Center
10:46PM 40.5692 -98.0517 62° Northeast 470 541 38,100 -780 Descending Minneapolis Center
10:47PM 40.6267 -97.9056 63° Northeast 458 527 38,000 -660 Descending Minneapolis Center
10:48PM 40.6836 -97.7586 63° Northeast 455 524 36,800 -1,920 Descending Minneapolis Center
10:49PM 40.7417 -97.6131 62° Northeast 453 521 34,100 -2,760 Descending Minneapolis Center
10:50PM 40.7989 -97.4672 63° Northeast 451 519 31,200 -3,000 Descending Minneapolis Center
10:51PM 40.8539 -97.3208 64° Northeast 450 518 28,000 -3,300 Descending Minneapolis Center
10:52PM 40.9103 -97.1778 62° Northeast 446 513 24,600 -3,540 Descending Minneapolis Center
10:53PM 40.9328 -97.0808 73° East 440 506 22,600 -3,000 Descending Minneapolis Center
10:53PM 40.9661 -97.0342 47° Northeast 442 509 21,600 -2,880 Descending Minneapolis Center
10:53PM 40.9636 -97.0006 96° East 430 495 20,900 -3,000 Descending Minneapolis Center
10:54PM 41.0178 -96.8953 56° Northeast 433 498 18,600 -3,060 Descending Minneapolis Center
10:55PM 41.0658 -96.7447 67° East 395 455 15,100 -3,600 Descending Minneapolis Center
10:55PM 41.0778 -96.7408 14° North 413 475 15,000 -3,000 Descending Minneapolis Center
10:56PM 41.1189 -96.6147 67° East 373 429 12,100 -2,880 Descending Minneapolis Center
10:56PM 41.1264 -96.6167 349° North 396 456 12,100 -1,440 Level Minneapolis Center
10:57PM 41.1625 -96.5050 67° East 337 388 10,700 -1,380 Descending Minneapolis Center
10:57PM 41.1711 -96.4997 25° Northeast 377 434 10,700 -1,500 Level Minneapolis Center
10:58PM 41.2061 -96.3981 65° Northeast 312 359 9,200 -1,500 Descending Minneapolis Center
10:58PM 41.2103 -96.3997 343° North 335 386 9,200 -1,800 Level Minneapolis Center
10:59PM 41.2458 -96.2967 65° Northeast 310 357 7,400 -1,800 Descending Minneapolis Center
10:59PM 41.2492 -96.2986 336° Northwest 318 366 7,400 -1,500 Level Minneapolis Center
11:00PM 41.2858 -96.2008 63° Northeast 298 343 5,900 -1,500 Descending Minneapolis Center
11:00PM 41.2875 -96.1994 32° Northeast 310 357 5,900 -1,620 Level Minneapolis Center
11:01PM 41.3236 -96.1078 62° Northeast 287 330 4,300 -1,620 Descending Minneapolis Center
11:01PM 41.3264 -96.1064 21° North 293 337 4,300 -300 Level Minneapolis Center
11:02PM 41.3711 -96.0303 52° Northeast 253 291 4,000 -300 Descending Minneapolis Center
11:02PM 41.3753 -96.0214 58° Northeast 280 322 4,000 -960 Level Minneapolis Center
11:03PM 41.4158 -95.9525 52° Northeast 256 295 3,000 -600 Descending Minneapolis Center
11:04PM 41.3986 -95.8931 111° Southeast 203 234 2,800 -540 Descending Minneapolis Center
11:05PM 41.3667 -95.9000 189° South 101 116 2,000 -900 Descending Minneapolis Center
11:05PM 41.3644 -95.8933 114° Southeast 147 169 1,900 -600 Descending Minneapolis Center
11:06PM 41.3331 -95.8986 187° South 106 122 1,400 -540 Descending Minneapolis Center
11:06PM 41.3333 -95.8939 86° East 123 142 1,400 -420 Level Minneapolis Center
11:07PM 41.3044 -95.8953 182° South 119 137 1,000 -420 Descending Minneapolis Center